sensor_id;sensor_type;location;lat;lon;timestamp;pressure;altitude;pressure_sealevel;temperature;humidity
40596;BME280;26304;48.794;9.820;2023-07-09T00:00:43;96744.44;;;23.90;48.94
40596;BME280;26304;48.794;9.820;2023-07-09T00:06:27;96741.78;;;23.90;48.71
40596;BME280;26304;48.794;9.820;2023-07-09T00:12:12;96741.78;;;23.90;48.64
40596;BME280;26304;48.794;9.820;2023-07-09T00:17:55;96743.25;;;23.91;48.75
40596;BME280;26304;48.794;9.820;2023-07-09T00:23:39;96753.59;;;23.82;48.84
40596;BME280;26304;48.794;9.820;2023-07-09T00:29:22;96750.16;;;23.85;48.97
40596;BME280;26304;48.794;9.820;2023-07-09T00:35:06;96749.06;;;23.79;48.96
40596;BME280;26304;48.794;9.820;2023-07-09T00:41:01;96751.44;;;23.70;49.20
40596;BME280;26304;48.794;9.820;2023-07-09T00:47:18;96756.81;;;23.63;49.52
40596;BME280;26304;48.794;9.820;2023-07-09T00:53:12;96753.88;;;23.50;50.18
40596;BME280;26304;48.794;9.820;2023-07-09T00:59:02;96763.34;;;23.54;49.74
40596;BME280;26304;48.794;9.820;2023-07-09T01:04:46;96768.72;;;23.47;50.18
40596;BME280;26304;48.794;9.820;2023-07-09T01:10:29;96761.47;;;23.51;50.06
40596;BME280;26304;48.794;9.820;2023-07-09T01:16:13;96760.38;;;23.49;49.94
40596;BME280;26304;48.794;9.820;2023-07-09T01:21:59;96761.50;;;23.48;49.82
40596;BME280;26304;48.794;9.820;2023-07-09T01:27:44;96758.94;;;23.37;50.05
40596;BME280;26304;48.794;9.820;2023-07-09T01:33:27;96752.84;;;23.40;50.08
40596;BME280;26304;48.794;9.820;2023-07-09T01:39:11;96764.31;;;23.30;50.48
40596;BME280;26304;48.794;9.820;2023-07-09T01:44:54;96761.47;;;23.02;51.09
40596;BME280;26304;48.794;9.820;2023-07-09T01:50:37;96754.47;;;23.27;50.54
40596;BME280;26304;48.794;9.820;2023-07-09T01:56:21;96759.84;;;23.19;50.48
40596;BME280;26304;48.794;9.820;2023-07-09T02:02:05;96765.22;;;23.12;50.45
40596;BME280;26304;48.794;9.820;2023-07-09T02:07:48;96769.81;;;23.01;51.22
40596;BME280;26304;48.794;9.820;2023-07-09T02:13:31;96767.13;;;23.08;51.03
40596;BME280;26304;48.794;9.820;2023-07-09T02:19:14;96767.47;;;23.07;50.90
40596;BME280;26304;48.794;9.820;2023-07-09T02:24:56;96776.28;;;22.96;51.15
40596;BME280;26304;48.794;9.820;2023-07-09T02:30:40;96772.13;;;22.92;51.42
40596;BME280;26304;48.794;9.820;2023-07-09T02:36:24;96777.06;;;22.90;51.62
40596;BME280;26304;48.794;9.820;2023-07-09T02:42:08;96779.69;;;22.93;51.42
40596;BME280;26304;48.794;9.820;2023-07-09T02:47:52;96779.75;;;22.82;51.70
40596;BME280;26304;48.794;9.820;2023-07-09T02:53:34;96776.75;;;22.77;51.62
40596;BME280;26304;48.794;9.820;2023-07-09T02:59:17;96781.31;;;22.76;51.76
40596;BME280;26304;48.794;9.820;2023-07-09T03:05:00;96775.28;;;22.72;52.04
40596;BME280;26304;48.794;9.820;2023-07-09T03:10:43;96784.41;;;22.64;52.26
40596;BME280;26304;48.794;9.820;2023-07-09T03:16:26;96788.16;;;22.70;52.07
40596;BME280;26304;48.794;9.820;2023-07-09T03:22:10;96798.81;;;22.59;52.54
40596;BME280;26304;48.794;9.820;2023-07-09T03:27:52;96793.53;;;22.56;52.66
40596;BME280;26304;48.794;9.820;2023-07-09T03:33:34;96800.78;;;22.44;52.81
40596;BME280;26304;48.794;9.820;2023-07-09T03:39:18;96796.59;;;22.47;52.77
40596;BME280;26304;48.794;9.820;2023-07-09T03:45:01;96807.94;;;22.47;52.60
40596;BME280;26304;48.794;9.820;2023-07-09T03:50:44;96806.84;;;22.45;52.63
40596;BME280;26304;48.794;9.820;2023-07-09T03:56:28;96815.94;;;22.37;52.96
40596;BME280;26304;48.794;9.820;2023-07-09T04:02:11;96813.31;;;22.33;52.89
40596;BME280;26304;48.794;9.820;2023-07-09T04:07:53;96813.66;;;22.39;53.01
40596;BME280;26304;48.794;9.820;2023-07-09T04:13:37;96822.72;;;22.48;52.86
40596;BME280;26304;48.794;9.820;2023-07-09T04:19:20;96815.91;;;22.44;53.21
40596;BME280;26304;48.794;9.820;2023-07-09T04:25:03;96810.25;;;22.38;53.31
40596;BME280;26304;48.794;9.820;2023-07-09T04:30:49;96823.13;;;22.43;53.15
40596;BME280;26304;48.794;9.820;2023-07-09T04:36:32;96814.78;;;22.41;53.46
40596;BME280;26304;48.794;9.820;2023-07-09T04:42:16;96810.63;;;22.44;53.39
40596;BME280;26304;48.794;9.820;2023-07-09T04:48:00;96818.22;;;22.24;53.81
40596;BME280;26304;48.794;9.820;2023-07-09T04:53:43;96818.59;;;22.26;54.25
40596;BME280;26304;48.794;9.820;2023-07-09T04:59:25;96816.34;;;22.17;54.55
40596;BME280;26304;48.794;9.820;2023-07-09T05:05:09;96826.16;;;22.24;54.55
40596;BME280;26304;48.794;9.820;2023-07-09T05:10:53;96820.88;;;22.20;54.91
40596;BME280;26304;48.794;9.820;2023-07-09T05:16:35;96826.16;;;22.24;55.23
40596;BME280;26304;48.794;9.820;2023-07-09T05:22:19;96820.47;;;22.25;56.22
40596;BME280;26304;48.794;9.820;2023-07-09T05:28:02;96831.09;;;22.33;55.91
40596;BME280;26304;48.794;9.820;2023-07-09T05:33:45;96829.94;;;22.41;56.03
40596;BME280;26304;48.794;9.820;2023-07-09T05:39:29;96832.22;;;22.35;56.31
40596;BME280;26304;48.794;9.820;2023-07-09T05:45:11;96833.69;;;22.51;56.12
40596;BME280;26304;48.794;9.820;2023-07-09T05:50:54;96831.41;;;22.56;56.55
40596;BME280;26304;48.794;9.820;2023-07-09T05:56:38;96838.19;;;22.61;57.32
40596;BME280;26304;48.794;9.820;2023-07-09T06:02:21;96838.75;;;22.97;55.43
40596;BME280;26304;48.794;9.820;2023-07-09T06:08:03;96833.84;;;22.99;54.89
40596;BME280;26304;48.794;9.820;2023-07-09T06:13:48;96839.84;;;23.11;54.42
40596;BME280;26304;48.794;9.820;2023-07-09T06:19:31;96836.03;;;23.15;53.70
40596;BME280;26304;48.794;9.820;2023-07-09T06:25:13;96829.97;;;23.18;53.39
40596;BME280;26304;48.794;9.820;2023-07-09T06:30:57;96837.88;;;23.22;53.08
40596;BME280;26304;48.794;9.820;2023-07-09T06:36:40;96839.75;;;23.25;53.06
40596;BME280;26304;48.794;9.820;2023-07-09T06:42:22;96837.81;;;23.29;52.80
40596;BME280;26304;48.794;9.820;2023-07-09T06:48:06;96844.25;;;23.32;52.62
40596;BME280;26304;48.794;9.820;2023-07-09T06:53:48;96847.25;;;23.34;52.49
40596;BME280;26304;48.794;9.820;2023-07-09T06:59:32;96848.41;;;23.36;52.19
40596;BME280;26304;48.794;9.820;2023-07-09T07:05:16;96857.06;;;23.44;52.47
40596;BME280;26304;48.794;9.820;2023-07-09T07:11:00;96863.41;;;23.57;53.20
40596;BME280;26304;48.794;9.820;2023-07-09T07:16:43;96865.66;;;23.59;54.28
40596;BME280;26304;48.794;9.820;2023-07-09T07:22:27;96864.84;;;23.66;53.67
40596;BME280;26304;48.794;9.820;2023-07-09T07:28:09;96855.75;;;23.67;53.97
40596;BME280;26304;48.794;9.820;2023-07-09T07:33:52;96860.63;;;23.72;54.37
40596;BME280;26304;48.794;9.820;2023-07-09T07:39:36;96849.09;;;23.44;55.26
40596;BME280;26304;48.794;9.820;2023-07-09T07:45:18;96843.06;;;23.40;54.92
40596;BME280;26304;48.794;9.820;2023-07-09T07:51:01;96846.81;;;23.46;55.03
40596;BME280;26304;48.794;9.820;2023-07-09T07:56:45;96847.16;;;23.48;55.09
40596;BME280;26304;48.794;9.820;2023-07-09T08:02:28;96844.50;;;23.52;54.89
40596;BME280;26304;48.794;9.820;2023-07-09T08:08:10;96841.41;;;23.57;54.73
40596;BME280;26304;48.794;9.820;2023-07-09T08:13:54;96839.47;;;23.61;54.67
40596;BME280;26304;48.794;9.820;2023-07-09T08:19:44;96834.91;;;23.65;54.48
40596;BME280;26304;48.794;9.820;2023-07-09T08:25:27;96833.72;;;23.70;54.08
40596;BME280;26304;48.794;9.820;2023-07-09T08:31:11;96836.72;;;23.72;54.42
40596;BME280;26304;48.794;9.820;2023-07-09T08:36:53;96833.66;;;23.77;53.88
40596;BME280;26304;48.794;9.820;2023-07-09T08:42:40;96831.78;;;23.78;53.99
40596;BME280;26304;48.794;9.820;2023-07-09T08:48:29;96834.38;;;23.81;54.17
40596;BME280;26304;48.794;9.820;2023-07-09T08:54:17;96833.63;;;23.81;54.03
40596;BME280;26304;48.794;9.820;2023-07-09T09:00:07;96829.41;;;23.90;53.85
40596;BME280;26304;48.794;9.820;2023-07-09T09:05:54;96821.41;;;23.94;53.54
40596;BME280;26304;48.794;9.820;2023-07-09T09:11:43;96828.63;;;23.93;53.91
40596;BME280;26304;48.794;9.820;2023-07-09T09:17:27;96830.84;;;23.99;53.48
40596;BME280;26304;48.794;9.820;2023-07-09T09:23:13;96828.09;;;24.06;53.29
40596;BME280;26304;48.794;9.820;2023-07-09T09:28:56;96832.28;;;24.07;53.41
40596;BME280;26304;48.794;9.820;2023-07-09T09:34:39;96834.19;;;24.06;53.68
40596;BME280;26304;48.794;9.820;2023-07-09T09:40:23;96834.13;;;24.10;53.79
40596;BME280;26304;48.794;9.820;2023-07-09T09:46:07;96830.69;;;24.13;53.07
40596;BME280;26304;48.794;9.820;2023-07-09T09:51:49;96828.72;;;24.17;53.35
40596;BME280;26304;48.794;9.820;2023-07-09T09:57:33;96794.97;;;24.18;53.17
40596;BME280;26304;48.794;9.820;2023-07-09T10:03:15;96801.75;;;24.22;53.21
40596;BME280;26304;48.794;9.820;2023-07-09T10:09:02;96811.16;;;24.30;52.87
40596;BME280;26304;48.794;9.820;2023-07-09T10:14:52;96809.19;;;24.35;52.48
40596;BME280;26304;48.794;9.820;2023-07-09T10:20:45;96801.53;;;24.40;52.95
40596;BME280;26304;48.794;9.820;2023-07-09T10:26:32;96819.63;;;24.53;52.56
40596;BME280;26304;48.794;9.820;2023-07-09T10:32:23;96815.25;;;24.70;52.45
40596;BME280;26304;48.794;9.820;2023-07-09T10:38:29;96803.06;;;24.72;51.82
40596;BME280;26304;48.794;9.820;2023-07-09T10:44:20;96805.66;;;24.76;52.36
40596;BME280;26304;48.794;9.820;2023-07-09T10:50:12;96812.84;;;24.79;52.22
40596;BME280;26304;48.794;9.820;2023-07-09T10:56:00;96791.44;;;24.90;51.97
40596;BME280;26304;48.794;9.820;2023-07-09T11:01:49;96791.03;;;24.91;52.72
40596;BME280;26304;48.794;9.820;2023-07-09T11:07:38;96782.19;;;24.98;51.96
40596;BME280;26304;48.794;9.820;2023-07-09T11:13:26;96772.66;;;25.00;52.57
40596;BME280;26304;48.794;9.820;2023-07-09T11:19:16;96782.03;;;25.09;52.19
40596;BME280;26304;48.794;9.820;2023-07-09T11:25:08;96768.28;;;25.14;52.78
40596;BME280;26304;48.794;9.820;2023-07-09T11:30:53;96774.34;;;25.14;53.21
40596;BME280;26304;48.794;9.820;2023-07-09T11:36:49;96770.84;;;25.21;52.82
40596;BME280;26304;48.794;9.820;2023-07-09T11:42:34;96767.38;;;25.24;53.37
40596;BME280;26304;48.794;9.820;2023-07-09T11:48:30;96762.34;;;25.30;53.06
40596;BME280;26304;48.794;9.820;2023-07-09T11:54:18;96771.66;;;25.42;52.73
40596;BME280;26304;48.794;9.820;2023-07-09T12:00:02;96763.22;;;25.47;52.55
40596;BME280;26304;48.794;9.820;2023-07-09T12:05:49;96760.16;;;25.48;52.82
40596;BME280;26304;48.794;9.820;2023-07-09T12:11:34;96754.75;;;25.52;52.94
40596;BME280;26304;48.794;9.820;2023-07-09T12:17:18;96750.09;;;25.56;52.72
40596;BME280;26304;48.794;9.820;2023-07-09T12:23:09;96758.09;;;25.56;51.50
40596;BME280;26304;48.794;9.820;2023-07-09T12:28:54;96752.78;;;25.56;52.38
40596;BME280;26304;48.794;9.820;2023-07-09T12:34:38;96737.44;;;25.64;52.66
40596;BME280;26304;48.794;9.820;2023-07-09T12:40:22;96734.91;;;25.77;51.66
40596;BME280;26304;48.794;9.820;2023-07-09T12:46:05;96732.88;;;25.84;51.83
40596;BME280;26304;48.794;9.820;2023-07-09T12:51:49;96716.81;;;25.88;52.70
40596;BME280;26304;48.794;9.820;2023-07-09T12:57:32;96720.78;;;25.80;52.03
40596;BME280;26304;48.794;9.820;2023-07-09T13:03:14;96720.31;;;25.85;52.42
40596;BME280;26304;48.794;9.820;2023-07-09T13:08:59;96706.94;;;25.88;51.94
40596;BME280;26304;48.794;9.820;2023-07-09T13:14:42;96705.56;;;25.80;52.54
40596;BME280;26304;48.794;9.820;2023-07-09T13:20:24;96703.31;;;25.79;52.40
40596;BME280;26304;48.794;9.820;2023-07-09T13:26:08;96697.22;;;25.78;52.15
40596;BME280;26304;48.794;9.820;2023-07-09T13:31:53;96692.66;;;25.79;51.95
40596;BME280;26304;48.794;9.820;2023-07-09T13:37:36;96692.31;;;25.77;52.00
40596;BME280;26304;48.794;9.820;2023-07-09T13:43:23;96688.50;;;25.78;52.35
40596;BME280;26304;48.794;9.820;2023-07-09T13:49:10;96693.81;;;25.78;52.24
40596;BME280;26304;48.794;9.820;2023-07-09T13:54:52;96685.81;;;25.78;52.29
40596;BME280;26304;48.794;9.820;2023-07-09T14:00:36;96687.66;;;25.81;52.00
40596;BME280;26304;48.794;9.820;2023-07-09T14:06:22;96687.25;;;25.82;51.64
40596;BME280;26304;48.794;9.820;2023-07-09T14:12:07;96686.09;;;25.83;51.40
40596;BME280;26304;48.794;9.820;2023-07-09T14:17:51;96676.19;;;25.84;51.89
40596;BME280;26304;48.794;9.820;2023-07-09T14:23:33;96676.13;;;25.87;51.69
40596;BME280;26304;48.794;9.820;2023-07-09T14:29:16;96674.19;;;25.88;51.55
40596;BME280;26304;48.794;9.820;2023-07-09T14:35:02;96666.63;;;25.86;52.07
40596;BME280;26304;48.794;9.820;2023-07-09T14:40:45;96654.41;;;25.89;51.60
40596;BME280;26304;48.794;9.820;2023-07-09T14:46:28;96656.66;;;25.90;52.12
40596;BME280;26304;48.794;9.820;2023-07-09T14:52:14;96650.59;;;25.90;51.83
40596;BME280;26304;48.794;9.820;2023-07-09T14:57:59;96645.59;;;25.92;51.39
40596;BME280;26304;48.794;9.820;2023-07-09T15:03:42;96644.38;;;25.97;51.95
40596;BME280;26304;48.794;9.820;2023-07-09T15:09:28;96635.81;;;26.05;51.78
40596;BME280;26304;48.794;9.820;2023-07-09T15:15:19;96641.19;;;26.38;52.56
40596;BME280;26304;48.794;9.820;2023-07-09T15:21:03;96627.53;;;26.36;53.45
40596;BME280;26304;48.794;9.820;2023-07-09T15:26:50;96630.38;;;26.45;51.80
40596;BME280;26304;48.794;9.820;2023-07-09T15:32:33;96634.63;;;26.59;52.66
40596;BME280;26304;48.794;9.820;2023-07-09T15:38:26;96630.72;;;26.48;52.79
40596;BME280;26304;48.794;9.820;2023-07-09T15:44:11;96627.22;;;26.51;52.72
40596;BME280;26304;48.794;9.820;2023-07-09T15:49:54;96633.53;;;26.57;52.06
40596;BME280;26304;48.794;9.820;2023-07-09T15:55:37;96627.78;;;26.58;51.83
40596;BME280;26304;48.794;9.820;2023-07-09T16:01:20;96622.38;;;26.62;55.45
40596;BME280;26304;48.794;9.820;2023-07-09T16:07:03;96624.41;;;26.74;52.42
40596;BME280;26304;48.794;9.820;2023-07-09T16:12:46;96620.97;;;26.74;54.97
40596;BME280;26304;48.794;9.820;2023-07-09T16:18:32;96627.13;;;26.87;52.41
40596;BME280;26304;48.794;9.820;2023-07-09T16:24:17;96624.03;;;26.89;52.79
40596;BME280;26304;48.794;9.820;2023-07-09T16:30:04;96620.53;;;26.92;53.03
40596;BME280;26304;48.794;9.820;2023-07-09T16:35:53;96596.69;;;26.85;52.72
40596;BME280;26304;48.794;9.820;2023-07-09T16:41:35;96594.03;;;26.85;52.49
40596;BME280;26304;48.794;9.820;2023-07-09T16:47:19;96596.78;;;26.81;51.90
40596;BME280;26304;48.794;9.820;2023-07-09T16:53:12;96598.22;;;26.86;51.48
40596;BME280;26304;48.794;9.820;2023-07-09T16:58:55;96592.88;;;26.86;51.38
40596;BME280;26304;48.794;9.820;2023-07-09T17:04:37;96597.38;;;26.89;51.53
40596;BME280;26304;48.794;9.820;2023-07-09T17:10:21;96589.06;;;26.99;50.91
40596;BME280;26304;48.794;9.820;2023-07-09T17:16:04;96576.56;;;26.96;50.59
40596;BME280;26304;48.794;9.820;2023-07-09T17:21:47;96587.34;;;26.93;50.37
40596;BME280;26304;48.794;9.820;2023-07-09T17:27:33;96613.09;;;26.99;49.42
40596;BME280;26304;48.794;9.820;2023-07-09T17:33:16;96607.31;;;27.01;49.64
40596;BME280;26304;48.794;9.820;2023-07-09T17:38:59;96614.50;;;27.04;49.32
40596;BME280;26304;48.794;9.820;2023-07-09T17:44:45;96611.22;;;27.13;50.02
40596;BME280;26304;48.794;9.820;2023-07-09T17:50:27;96607.31;;;27.17;51.86
40596;BME280;26304;48.794;9.820;2023-07-09T17:56:18;96597.19;;;27.25;51.35
40596;BME280;26304;48.794;9.820;2023-07-09T18:02:10;96592.84;;;27.31;51.40
40596;BME280;26304;48.794;9.820;2023-07-09T18:07:53;96583.25;;;27.34;51.45
40596;BME280;26304;48.794;9.820;2023-07-09T18:13:35;96586.88;;;27.40;51.38
40596;BME280;26304;48.794;9.820;2023-07-09T18:19:24;96596.72;;;27.43;51.26
40596;BME280;26304;48.794;9.820;2023-07-09T18:25:06;96608.03;;;27.47;51.11
40596;BME280;26304;48.794;9.820;2023-07-09T18:30:49;96604.88;;;27.52;50.81
40596;BME280;26304;48.794;9.820;2023-07-09T18:36:32;96589.69;;;27.49;50.46
40596;BME280;26304;48.794;9.820;2023-07-09T18:42:17;96584.34;;;27.49;49.65
40596;BME280;26304;48.794;9.820;2023-07-09T18:47:59;96612.88;;;27.52;48.76
40596;BME280;26304;48.794;9.820;2023-07-09T18:53:43;96614.22;;;27.44;49.41
40596;BME280;26304;48.794;9.820;2023-07-09T18:59:26;96607.94;;;27.38;47.97
40596;BME280;26304;48.794;9.820;2023-07-09T19:05:15;96611.13;;;27.16;45.05
40596;BME280;26304;48.794;9.820;2023-07-09T19:11:00;96611.69;;;27.24;43.34
40596;BME280;26304;48.794;9.820;2023-07-09T19:16:44;96613.28;;;27.22;42.27
40596;BME280;26304;48.794;9.820;2023-07-09T19:22:28;96610.44;;;27.29;42.98
40596;BME280;26304;48.794;9.820;2023-07-09T19:28:12;96612.84;;;27.40;42.40
40596;BME280;26304;48.794;9.820;2023-07-09T19:33:55;96618.44;;;27.29;42.79
40596;BME280;26304;48.794;9.820;2023-07-09T19:39:37;96616.06;;;27.47;41.37
40596;BME280;26304;48.794;9.820;2023-07-09T19:45:24;96624.91;;;27.44;41.14
40596;BME280;26304;48.794;9.820;2023-07-09T19:51:08;96631.75;;;27.16;41.43
40596;BME280;26304;48.794;9.820;2023-07-09T19:56:50;96635.41;;;27.06;40.63
40596;BME280;26304;48.794;9.820;2023-07-09T20:02:35;96628.34;;;26.99;40.46
40596;BME280;26304;48.794;9.820;2023-07-09T20:08:18;96636.53;;;26.92;40.54
40596;BME280;26304;48.794;9.820;2023-07-09T20:14:04;96637.72;;;26.91;40.79
40596;BME280;26304;48.794;9.820;2023-07-09T20:19:53;96631.28;;;26.88;40.50
40596;BME280;26304;48.794;9.820;2023-07-09T20:25:36;96635.13;;;26.87;40.41
40596;BME280;26304;48.794;9.820;2023-07-09T20:31:20;96640.22;;;26.81;40.88
40596;BME280;26304;48.794;9.820;2023-07-09T20:37:08;96642.38;;;26.87;40.35
40596;BME280;26304;48.794;9.820;2023-07-09T20:42:54;96630.38;;;26.78;40.70
40596;BME280;26304;48.794;9.820;2023-07-09T20:48:39;96629.72;;;26.74;40.70
40596;BME280;26304;48.794;9.820;2023-07-09T20:54:24;96625.97;;;26.72;41.14
40596;BME280;26304;48.794;9.820;2023-07-09T21:00:12;96629.16;;;26.67;41.48
40596;BME280;26304;48.794;9.820;2023-07-09T21:05:55;96623.81;;;26.67;41.47
40596;BME280;26304;48.794;9.820;2023-07-09T21:11:39;96619.22;;;26.67;41.62
40596;BME280;26304;48.794;9.820;2023-07-09T21:17:22;96624.63;;;26.63;41.56
40596;BME280;26304;48.794;9.820;2023-07-09T21:23:12;96625.53;;;26.57;41.98
40596;BME280;26304;48.794;9.820;2023-07-09T21:28:56;96630.09;;;26.56;42.38
40596;BME280;26304;48.794;9.820;2023-07-09T21:34:38;96630.88;;;26.57;42.32
40596;BME280;26304;48.794;9.820;2023-07-09T21:40:28;96627.94;;;26.51;42.44
40596;BME280;26304;48.794;9.820;2023-07-09T21:46:25;96634.84;;;26.49;42.55
40596;BME280;26304;48.794;9.820;2023-07-09T21:52:15;96633.09;;;26.42;42.23
40596;BME280;26304;48.794;9.820;2023-07-09T21:57:57;96628.19;;;26.40;42.81
40596;BME280;26304;48.794;9.820;2023-07-09T22:03:41;96632.19;;;26.32;42.91
40596;BME280;26304;48.794;9.820;2023-07-09T22:09:24;96643.19;;;26.34;43.20
40596;BME280;26304;48.794;9.820;2023-07-09T22:15:15;96636.88;;;26.28;43.36
40596;BME280;26304;48.794;9.820;2023-07-09T22:20:59;96631.53;;;26.28;43.32
40596;BME280;26304;48.794;9.820;2023-07-09T22:26:42;96631.19;;;26.26;43.66
40596;BME280;26304;48.794;9.820;2023-07-09T22:32:26;96636.28;;;26.20;43.48
40596;BME280;26304;48.794;9.820;2023-07-09T22:38:17;96632.50;;;26.18;43.61
40596;BME280;26304;48.794;9.820;2023-07-09T22:44:00;96634.84;;;26.16;43.33
40596;BME280;26304;48.794;9.820;2023-07-09T22:49:42;96633.50;;;26.07;43.28
40596;BME280;26304;48.794;9.820;2023-07-09T22:55:32;96625.84;;;26.09;43.52
40596;BME280;26304;48.794;9.820;2023-07-09T23:01:17;96641.56;;;26.04;43.36
40596;BME280;26304;48.794;9.820;2023-07-09T23:07:08;96639.09;;;25.93;43.79
40596;BME280;26304;48.794;9.820;2023-07-09T23:12:52;96640.59;;;25.94;43.61
40596;BME280;26304;48.794;9.820;2023-07-09T23:18:37;96644.47;;;25.89;43.48
40596;BME280;26304;48.794;9.820;2023-07-09T23:24:20;96643.75;;;25.89;43.73
40596;BME280;26304;48.794;9.820;2023-07-09T23:30:16;96638.75;;;25.91;43.67
40596;BME280;26304;48.794;9.820;2023-07-09T23:36:00;96628.25;;;25.84;44.13
40596;BME280;26304;48.794;9.820;2023-07-09T23:41:45;96627.09;;;25.85;43.64
40596;BME280;26304;48.794;9.820;2023-07-09T23:47:30;96628.34;;;25.80;43.66
40596;BME280;26304;48.794;9.820;2023-07-09T23:53:21;96624.84;;;25.83;43.38
40596;BME280;26304;48.794;9.820;2023-07-09T23:59:04;96623.41;;;25.79;43.51
